首页
METAR-TAF:

METAR-TAF

机场 :

施韦比施哈尔, 德国

纬度: 49-07-06N, 经度: 9-47-02E, 海拔: 398米

当前天气观测

该预报发布于10小时和0分钟前的18:50 UTC
风速5节,风向南转西南
温度 3°C
湿度 81%
气压 1012 hPa
能见度10公里或以上
1500米以下无云,无积雨云

METAR: EDTY 181850Z 21005KT CAVOK 03/00 Q1012

时间: 05:50 (04:50 UTC)

预报

该预报发布于11小时和50分钟前的17:00 UTC
预报有效从18日的 18点(UTC)到 19日的 03点(UTC)
风速7节,风向西南
能见度10公里或以上
散云层高于3000英尺

TAF: EDTY 181700Z 1818/1903 22007KT 9999 SCT030

超过4000个机场的气象观测和天气预报(METAR&TAF报告)。

可查询的气象台以黄色和红色小点在地图上表示。

将鼠标移到小点上方,可查看气象台名称。

然后点击查看天气观测和预报。

如需切换地图:点击带黑十字的绿色按钮放大地图;点击带横线的绿色按钮缩小地图;或者点击绿色箭头查看邻近地区的地图。


METAR-TAF: